Dushanbe, Tajikistan
Current Conditions -  °F | °C
As of 6:00 PM on Friday 31 Oct 2014 (Local Time) from UTDD Reporting Station
Overcast Overcast  
Wind Chill: 55°   Ceiling: 20000
Heat Index: 55°   Visibility: 4mi
Dew Point: 30°   Wind: 7mph
Humidity: 38%   Direction: 270°W
Pressure: 30.09"   Gusts: NA
Location:  38.57°N, 68.78°E
Report Text: UTDD 311300Z 27003MPS 7000 FEW066 OVC200 13/M01 Q1019 09CLRD70NOSIG RMK QFE696/0928
Loading
Personal Weather Stations






























Interactive Weather Map
Tropical Storm Tracking
New forecast layout! Learn more

10-Day Weather Forecast

Advertisements
Track Severe Weather on mobile